Tiempo atmosférico en la estación meteorológica de Navarredonda De Gredos, Ávila (1550 m.)



Fecha
DESCASC
Temp. máxima en grados centígrados (hora)
DESCASC
Temp. mínima en grados centígrados (hora)
DESCASC
Temp. media en grados centígrados
DESCASC
Racha de viento máxima en m/sg (hora)
DESCASC
Velocidad máxima media en intervalos de 10 minutos(hora)
DESCASC
Precipitaciones diarias en mm
DESCASC
Precipitaciones de 00:00 a 06:00 en mm
DESCASC
Precipitaciones de 06:00 a 12:00 en mm
DESCASC
Precipitaciones de 12:00 a 18:00 en mm
DESCASC
Precipitaciones de 18:00 a 24:00 en mm
DESCASC
19-12-2019 -- (--) -- (--) -- -- (--) -- (--) -- 3.9 7.6 23.3 --
10-01-2020 5.4 (14:00) -3.7 (-00:0) 0.9 0 (17:00) 0 (00:10) 0 0 0 0 0
04-01-2020 7.7 (14:00) -3.6 (-00:0) 2 0.28 (13:40) 0 (14:00) 0 0 0 0 0
16-01-2020 7.9 (12:20) 2.2 (00:00) 5.1 0 (00:10) 0 (00:10) 0.4 0 0.4 0 0
11-01-2020 8.3 (13:50) -6.3 (-00:0) 1 0 (03:40) 0 (00:10) 0 0 0 0 0
03-01-2020 8.4 (14:30) -1 (-00:0) 3.7 0.83 (02:30) 0 (01:00) 0 0 0 0 0
20-12-2019 8.7 (01:30) 5 (00:00) 6.8 10.56 (19:10) 1.67 (19:20) 30.8 6.4 0.1 7.3 17
22-12-2019 8.8 (12:10) 1.2 (00:00) 5 6.67 (14:50) 2.5 (14:20) 0.5 0.4 0.1 0 0
17-01-2020 9 (14:00) -0.3 (05:00) 4.3 2.5 (15:20) 0 (17:00) 0 0 0 0 0
15-01-2020 9.9 (14:30) 0.7 (00:00) 5.3 0 (00:40) 0 (00:10) 0.4 0.4 0 0 0
14-01-2020 10.7 (14:10) -3.9 (-00:0) 3.4 2.5 (01:20) 1.39 (01:30) 0.3 0 0 0 0.3
21-12-2019 12.2 (12:10) 4.2 (00:00) 8.2 5.83 (18:20) 2.22 (17:50) 5.4 3.8 1.4 0 0.2
09-01-2020 12.3 (14:10) 0.7 (00:00) 6.5 1.11 (11:10) 0 (00:10) 0 0 0 0 0
05-01-2020 12.5 (14:40) -3.5 (-00:0) 4.5 0.28 (22:30) 0 (00:10) 0 0 0 0 0
13-01-2020 13 (14:30) -2.4 (-00:0) 5.3 0.28 (19:30) 0 (00:10) 0 0 0 0 0
23-12-2019 13.9 (13:40) 0 (00:00) 6.9 5.28 (14:00) 1.94 (12:50) 0 0 0 0 0
26-12-2019 14.5 (14:20) 1.5 (00:00) 8 5 (05:10) 1.11 (15:40) 0 0 0 0 0
06-01-2020 14.8 (14:30) 0.4 (00:00) 7.6 0.28 (22:30) 0 (00:10) 0 0 0 0 0
12-01-2020 15.1 (14:20) -5.8 (-00:0) 4.7 0 (21:40) 0 (00:10) 0 0 0 0 0
27-12-2019 15.5 (13:50) 2.6 (00:00) 9 5.83 (22:20) 1.11 (11:30) 0 0 0 0 0
08-01-2020 15.6 (14:00) 2.1 (00:00) 8.9 1.11 (18:30) 0 (00:10) 0 0 0 0 0
07-01-2020 16.4 (14:30) 0.8 (00:00) 8.6 2.5 (16:30) 0.28 (16:30) 0 0 0 0 0
24-12-2019 17 (14:20) 3.6 (00:00) 10.3 4.72 (16:20) 1.94 (16:20) 0 0 0 0 0
25-12-2019 17.4 (14:10) 5 (00:00) 11.2 5.56 (16:10) 2.5 (16:20) 0 0 0 0 0
02-01-2020 17.8 (14:20) 1.8 (00:00) 9.8 1.11 (15:00) 0.28 (14:20) 0 0 0 0 0
30-12-2019 17.8 (14:40) 2.7 (00:00) 10.2 7.78 (20:00) 1.94 (11:00) 0 0 0 0 0
31-12-2019 18.5 (14:30) 1.8 (00:00) 10.1 0.28 (23:30) 0 (23:50) 0 0 0 0 0
01-01-2020 19 (14:00) 2.2 (00:00) 10.6 2.5 (15:20) 1.11 (15:40) 0 0 0 0 0
29-12-2019 19.1 (14:40) 3.2 (00:00) 11.2 5.83 (01:50) 1.39 (14:00) 0 0 0 0 0
28-12-2019 19.1 (14:30) 2.8 (00:00) 11 12.78 (04:50) 1.94 (04:40) 0 0 0 0 0

Gráficas

Temp. máximas Temp. mínimas Temp. medias Precipitaciones Rachas de viento máximas Velocidades máximas media en intervalos de 10 minutos

Datos horarios

Fecha y hora oficial Temperatura (ºC) Velocidad del viento (km/h) Dirección del viento Racha (km/h) Dirección de racha Precipitación (mm) Presión (hPa) Tendencia (hPa) Humedad (%)
2020-01-17 23:00:00 1 0 Calma -- -- 0 856.6 -1.2 77
2020-01-17 22:00:00 0.5 0 Calma -- -- 0 857.6 0.1 77
2020-01-17 21:00:00 0.1 0 Calma -- -- 0 857.9 0.9 74
2020-01-17 20:00:00 1 0 Calma -- -- 0 857.8 0.7 71
2020-01-17 19:00:00 1.7 0 Calma 0 Calma 0 857.5 0.9 62
2020-01-17 18:00:00 4.6 0 Calma 9 Sudoeste 0 857 0.6 51
2020-01-17 17:00:00 6.2 0 Calma 9 Sudoeste 0 857.1 0.2 46
2020-01-17 16:00:00 7.1 0 Calma 9 Sudoeste 0 856.6 -0.4 43
2020-01-17 15:00:00 8.6 0 Calma -- -- 0 856.4 -0.7 45
2020-01-17 14:00:00 8.8 0 Calma -- -- 0 856.9 0.4 56
2020-01-17 13:00:00 7.6 0 Calma -- -- 0 857 1 63
2020-01-17 12:00:00 4.2 0 Calma -- -- 0 857.1 1.6 79
2020-01-17 11:00:00 4.1 0 Calma -- -- 0 856.5 1.7 84
2020-01-17 10:00:00 3 0 Calma -- -- 0 856 1.8 87
2020-01-17 09:00:00 2.1 0 Calma 0 Calma 0 855.5 1.7 88
2020-01-17 08:00:00 1.9 0 Calma -- -- 0 854.8 1.4 87
2020-01-17 07:00:00 1.3 0 Calma -- -- 0 854.2 1 85
2020-01-17 06:00:00 0.9 0 Calma -- -- 0 853.8 0.4 83
2020-01-17 05:00:00 -0.1 0 Calma -- -- 0 853.4 0.4 79
2020-01-17 04:00:00 0 0 Calma -- -- 0 853.2 0.4 81
2020-01-17 03:00:00 0.7 0 Calma 0 Calma 0 853.4 0.6 80
2020-01-17 02:00:00 0.7 0 Calma -- -- 0 853 0.6 83
2020-01-17 01:00:00 2 0 Calma -- -- 0 852.8 0.8 84
2020-01-17 00:00:00 3.1 0 Calma -- -- 0 852.8 0.2 84
2020-01-16 23:00:00 2.6 0 Calma -- -- 0 852.4 0.4 83
2020-01-16 22:00:00 3.3 0 Calma -- -- 0 852 0 71
2020-01-16 21:00:00 3.9 0 Calma -- -- 0 852.6 1 56
2020-01-16 20:00:00 4.1 0 Calma -- -- 0 852 0.2 60
2020-01-16 19:00:00 4.1 0 Calma -- -- 0 852 0.1 52
2020-01-16 18:00:00 5 0 Calma -- -- 0 851.6 -0.2 44
2020-01-16 17:00:00 5.4 0 Calma -- -- 0 851.8 -1 43
2020-01-16 16:00:00 5.6 0 Calma -- -- 0 851.9 -1.7 43
2020-01-16 15:00:00 6.1 0 Calma -- -- 0 851.8 -2.2 43
2020-01-16 14:00:00 6.3 0 Calma -- -- 0 852.8 -1.4 47
2020-01-16 13:00:00 5.6 0 Calma -- -- 0 853.6 0.2 49
2020-01-16 12:00:00 7.7 0 Calma -- -- 0 854 0.8 55
2020-01-16 11:00:00 5.6 0 Calma -- -- 0 854.2 1.3 82
2020-01-16 10:00:00 4.8 0 Calma -- -- 0.1 853.4 0.6 94
2020-01-16 09:00:00 4.3 0 Calma -- -- 0.2 853.2 0.3 95
2020-01-16 08:00:00 4.3 0 Calma -- -- 0.1 852.9 0.1 94
2020-01-16 07:00:00 4.5 0 Calma -- -- 0 852.8 -0.4 94
2020-01-16 06:00:00 4.5 0 Calma -- -- 0 852.9 -0.6 92
2020-01-16 05:00:00 5 0 Calma -- -- 0 852.8 -0.5 91
2020-01-16 04:00:00 4.1 0 Calma -- -- 0 853.2 -0.5 94
2020-01-16 03:00:00 4.9 0 Calma -- -- 0 853.5 -0.4 94
2020-01-16 02:00:00 4.5 0 Calma -- -- 0 853.3 -0.3 95
2020-01-16 01:00:00 4.6 0 Calma -- -- 0 853.7 0.2 94
2020-01-16 00:00:00 4.6 0 Calma -- -- 0 853.9 0.4 92
2020-01-15 23:00:00 4.8 0 Calma -- -- 0 853.6 0.3 92
2020-01-15 22:00:00 4.9 0 Calma -- -- 0 853.5 0.9 90
2020-01-15 21:00:00 5 0 Calma -- -- 0 853.5 1.4 87
2020-01-15 20:00:00 4.9 0 Calma 0 Calma 0 853.3 1.5 86
2020-01-15 19:00:00 5 0 Calma -- -- 0 852.6 1.3 80
2020-01-15 18:00:00 6.1 0 Calma -- -- 0 852.1 1.2 74
2020-01-15 17:00:00 6.6 0 Calma -- -- 0 851.8 0.9 71
2020-01-15 16:00:00 6.8 0 Calma -- -- 0 851.3 0.3 70
2020-01-15 15:00:00 8 0 Calma -- -- 0 850.9 -0.2 65
2020-01-15 14:00:00 7.6 0 Calma -- -- 0 850.9 0.7 69
2020-01-15 13:00:00 6 0 Calma -- -- 0 851 1.4 74
2020-01-15 12:00:00 5.4 0 Calma -- -- 0 851.1 2.5 81
2020-01-15 11:00:00 4.8 0 Calma -- -- 0 850.2 1.8 84
2020-01-15 10:00:00 3.2 0 Calma -- -- 0 849.6 1.8 91
2020-01-15 09:00:00 2.5 0 Calma -- -- 0 848.6 0.5 91
2020-01-15 08:00:00 1.7 0 Calma 0 Calma 0 848.4 0.1 91
2020-01-15 07:00:00 2.3 0 Calma -- -- 0 847.8 -0.9 90
2020-01-15 06:00:00 0.9 0 Calma -- -- 0.1 848.1 -0.4 91
2020-01-15 05:00:00 1.2 0 Calma -- -- 0 848.3 -0.2 88
2020-01-15 04:00:00 1.3 0 Calma -- -- 0 848.7 0.5 94
2020-01-15 03:00:00 1.5 0 Calma 0 Calma 0 848.5 0.2 94
2020-01-15 02:00:00 1.8 0 Calma 0 Calma 0.1 848.5 -0.2 95
2020-01-15 01:00:00 2.1 0 Calma 0 Calma 0.2 848.2 -0.4 96
2020-01-15 00:00:00 2.5 0 Calma -- -- 0.3 848.3 0.1 95
2020-01-14 23:00:00 3 0 Calma -- -- 0 848.7 0.3 91
2020-01-14 22:00:00 3.3 0 Calma -- -- 0 848.6 0.1 87
2020-01-14 21:00:00 2 0 Calma -- -- 0 848.2 0.3 88
2020-01-14 20:00:00 0.8 0 Calma -- -- 0 848.4 0.5 85
2020-01-14 19:00:00 1.6 0 Calma -- -- 0 848.5 0.8 74
2020-01-14 18:00:00 4.3 0 Calma 0 Calma 0 847.9 0.2 63
2020-01-14 17:00:00 6.2 0 Calma 9 Sudoeste 0 847.9 -0.1 55
2020-01-14 16:00:00 6.8 0 Calma 9 Sudoeste 0 847.7 -0.7 47
2020-01-14 15:00:00 9.4 0 Calma -- -- 0 847.7 -1.3 38
2020-01-14 14:00:00 9.7 0 Calma -- -- 0 848 -0.9 40
2020-01-14 13:00:00 9.7 0 Calma -- -- 0 848.4 -0.2 35
2020-01-14 12:00:00 8.1 0 Calma -- -- 0 849 0.6 39
2020-01-14 11:00:00 5.5 0 Calma 9 Sudoeste 0 848.9 0.5 45
2020-01-14 10:00:00 0.6 0 Calma -- -- 0 848.6 0.6 46
2020-01-14 09:00:00 -3.9 0 Calma -- -- 0 848.4 0.4 50
2020-01-14 08:00:00 -2.9 0 Calma 0 Calma 0 848.4 -0.1 40
2020-01-14 07:00:00 -2.4 0 Calma -- -- 0 848 -0.7 50
2020-01-14 06:00:00 -3.2 0 Calma -- -- 0 848 -0.6 43
2020-01-14 05:00:00 -2.7 0 Calma -- -- 0 848.5 -0.6 43
2020-01-14 04:00:00 -2.5 0 Calma 0 Calma 0 848.7 -1.1 52
2020-01-14 03:00:00 -2.9 0 Calma -- -- 0 848.6 -1.5 43
2020-01-14 02:00:00 -3.4 0 Calma 9 Sudoeste 0 849.1 -0.8 49
2020-01-14 01:00:00 -2.1 0 Calma -- -- 0 849.8 0.1 58
2020-01-14 00:00:00 -2.2 0 Calma -- -- 0 850.1 0.1 62
2020-01-13 23:00:00 -1.4 0 Calma 0 Calma 0 849.9 0 65
2020-01-13 22:00:00 -0.8 0 Calma -- -- 0 849.7 -0.1 68
2020-01-13 21:00:00 -0.4 0 Calma -- -- 0 850 0.2 53
2020-01-13 20:00:00 0.6 0 Calma 0 Calma 0 849.9 -0.2 44
2020-01-13 19:00:00 2.6 0 Calma 0 Calma 0 849.8 -0.5 39
2020-01-13 18:00:00 4.8 0 Calma -- -- 0 849.8 -0.6 35
2020-01-13 17:00:00 7.8 0 Calma -- -- 0 850.1 -0.8 28
2020-01-13 16:00:00 9.7 0 Calma -- -- 0 850.3 -1.4 23
2020-01-13 15:00:00 11.7 0 Calma -- -- 0 850.4 -1.8 19
2020-01-13 14:00:00 11.7 0 Calma -- -- 0 850.9 -1.3 17
2020-01-13 13:00:00 11.2 0 Calma -- -- 0 851.7 -0.4 20
2020-01-13 12:00:00 10 0 Calma -- -- 0 852.2 0.2 21
2020-01-13 11:00:00 5.5 0 Calma -- -- 0 852.2 0 27
2020-01-13 10:00:00 1.2 0 Calma -- -- 0 852.1 -0.1 26
2020-01-13 09:00:00 -0.6 0 Calma -- -- 0 852 -0.6 23
2020-01-13 08:00:00 -0.9 0 Calma -- -- 0 852.2 -0.9 24
2020-01-13 07:00:00 -1.4 0 Calma -- -- 0 852.2 -1.3 27
2020-01-13 06:00:00 -1.7 0 Calma -- -- 0 852.6 -1.1 22
2020-01-13 05:00:00 -0.9 0 Calma 0 Calma 0 853.1 -0.8 22
2020-01-13 04:00:00 -0.4 0 Calma 0 Calma 0 853.5 -1.2 27
2020-01-13 03:00:00 -0.2 0 Calma -- -- 0 853.7 -1.4 31
2020-01-13 02:00:00 0.3 0 Calma -- -- 0 853.9 -1.6 31
2020-01-13 01:00:00 0.5 0 Calma -- -- 0 854.7 -1 32
2020-01-13 00:00:00 0.9 0 Calma -- -- 0 855.1 -1 35
2020-01-12 23:00:00 -0.4 0 Calma -- -- 0 855.5 -1 40
2020-01-12 22:00:00 0.3 0 Calma 0 Calma 0 855.7 -0.5 41
2020-01-12 21:00:00 0.8 0 Calma -- -- 0 856.1 0.5 37
2020-01-12 20:00:00 1.1 0 Calma -- -- 0 856.5 1.2 29
2020-01-12 19:00:00 3.7 0 Calma -- -- 0 856.2 0.5 20
2020-01-12 18:00:00 7.5 0 Calma -- -- 0 855.6 -0.2 16
2020-01-12 17:00:00 10.6 0 Calma -- -- 0 855.3 -0.7 13
2020-01-12 16:00:00 11.4 0 Calma -- -- 0 855.7 -1.2 14
2020-01-12 15:00:00 13.9 0 Calma -- -- 0 855.8 -1.6 13
2020-01-12 14:00:00 14.6 0 Calma -- -- 0 856 -1.3 15
2020-01-12 13:00:00 13.2 0 Calma -- -- 0 856.9 -0.4 13
2020-01-12 12:00:00 11.8 0 Calma -- -- 0 857.4 0.5 16
2020-01-12 11:00:00 7.8 0 Calma -- -- 0 857.3 0.3 21
2020-01-12 10:00:00 0.3 0 Calma -- -- 0 857.3 0.7 21
2020-01-12 09:00:00 -4 0 Calma -- -- 0 856.9 0.5 20
2020-01-12 08:00:00 -4.6 0 Calma -- -- 0 857 0.3 24
2020-01-12 07:00:00 -4 0 Calma -- -- 0 856.6 0 39
2020-01-12 06:00:00 -4.2 0 Calma -- -- 0 856.4 -0.3 36
2020-01-12 05:00:00 -4.5 0 Calma -- -- 0 856.7 0.2 27
2020-01-12 04:00:00 -3.7 0 Calma -- -- 0 856.6 -0.3 26
2020-01-12 03:00:00 -3.5 0 Calma -- -- 0 856.7 -0.4 31
2020-01-12 02:00:00 -3.7 0 Calma -- -- 0 856.5 -0.6 28
2020-01-12 01:00:00 -3.8 0 Calma -- -- 0 856.9 -0.3 34
2020-01-12 00:00:00 -3.3 0 Calma -- -- 0 857.1 -0.1 34
2020-01-11 23:00:00 -3.3 0 Calma -- -- 0 857.1 -0.1 34
2020-01-11 22:00:00 -2.7 0 Calma -- -- 0 857.2 0.6 42
2020-01-11 21:00:00 -1.9 0 Calma -- -- 0 857.2 1.1 45
2020-01-11 20:00:00 -0.9 0 Calma -- -- 0 857.2 1 37
2020-01-11 19:00:00 0.7 0 Calma 0 Calma 0 856.6 0.5 31
2020-01-11 18:00:00 4.1 0 Calma -- -- 0 856.1 -0.1 24
2020-01-11 17:00:00 6.3 0 Calma -- -- 0 856.2 -0.4 19
2020-01-11 16:00:00 6.7 0 Calma -- -- 0 856.1 -1.1 19
2020-01-11 15:00:00 7.8 0 Calma -- -- 0 856.2 -1.5 16
2020-01-11 14:00:00 8.1 0 Calma -- -- 0 856.6 -0.9 16
2020-01-11 13:00:00 7.8 0 Calma -- -- 0 857.2 0.2 19
2020-01-11 12:00:00 7 0 Calma -- -- 0 857.7 1 25
2020-01-11 11:00:00 3.8 0 Calma -- -- 0 857.5 0.7 38
2020-01-11 10:00:00 -1.4 0 Calma 0 Calma 0 857 0.6 43
2020-01-11 09:00:00 -5.5 0 Calma 0 Calma 0 856.7 0.3 --
2020-01-11 08:00:00 -6.1 0 Calma -- -- 0 856.8 0.4 --
2020-01-11 07:00:00 -5.8 0 Calma -- -- 0 856.4 -0.5 83
2020-01-11 06:00:00 -6 0 Calma -- -- 0 856.4 -0.4 --
2020-01-11 05:00:00 -5.5 0 Calma -- -- 0 856.4 -0.4 76
2020-01-11 04:00:00 -5.2 0 Calma 0 Calma 0 856.9 0 72
2020-01-11 03:00:00 -4.7 0 Calma -- -- 0 856.8 -0.6 91
2020-01-11 02:00:00 -4 0 Calma -- -- 0 856.8 -0.4 --
2020-01-11 01:00:00 -3.5 0 Calma -- -- 0 856.9 0 85
2020-01-11 00:00:00 -2.5 0 Calma -- -- 0 857.4 0.6 77
2020-01-10 23:00:00 -2.3 0 Calma -- -- 0 857.2 0.8 77
2020-01-10 22:00:00 -1.4 0 Calma -- -- 0 856.9 0.9 87
2020-01-10 21:00:00 -0.9 0 Calma -- -- 0 856.8 1.6 82
2020-01-10 20:00:00 -1 0 Calma -- -- 0 856.4 1.4 80
2020-01-10 19:00:00 -0.6 0 Calma -- -- 0 856 0.9 77
2020-01-10 18:00:00 0.5 0 Calma -- -- 0 855.2 0.9 71
2020-01-10 17:00:00 1.9 0 Calma 0 Calma 0 855 -0.2 61
2020-01-10 16:00:00 2.9 0 Calma -- -- 0 855.1 -0.7 56
2020-01-10 15:00:00 3.4 0 Calma -- -- 0 854.3 -1.2 52
2020-01-10 14:00:00 5 0 Calma -- -- 0 855.2 0.1 49
2020-01-10 13:00:00 4.5 0 Calma -- -- 0 855.8 1.2 56
2020-01-10 12:00:00 2.9 0 Calma -- -- 0 855.5 1.2 71
2020-01-10 11:00:00 0.7 0 Calma -- -- 0 855.1 1.2 80
2020-01-10 10:00:00 -1.7 0 Calma -- -- 0 854.6 1.1 94
2020-01-10 09:00:00 -3.4 0 Calma -- -- 0 854.3 0.9 96
2020-01-10 08:00:00 -3.5 0 Calma -- -- 0 853.9 0.5 96
2020-01-10 07:00:00 -3.3 0 Calma -- -- 0 853.5 0.2 95
2020-01-10 06:00:00 -3.1 0 Calma -- -- 0 853.4 0.2 95
2020-01-10 05:00:00 -2.6 0 Calma -- -- 0 853.4 -0.1 93
2020-01-10 04:00:00 -1.3 0 Calma -- -- 0 853.3 -0.6 92
2020-01-10 03:00:00 -0.4 0 Calma -- -- 0 853.2 -0.8 87
2020-01-10 02:00:00 0.8 0 Calma -- -- 0 853.5 0 87
2020-01-10 01:00:00 2 0 Calma -- -- 0 853.9 0.8 87
2020-01-10 00:00:00 2.3 0 Calma -- -- 0 854 0.5 90
2020-01-09 23:00:00 3.5 0 Calma -- -- 0 853.5 -0.2 91
2020-01-09 22:00:00 4.3 0 Calma -- -- 0 853.1 -0.6 89
2020-01-09 21:00:00 5.7 0 Calma 0 Calma 0 853.5 0.4 82
2020-01-09 20:00:00 5.5 0 Calma -- -- 0 853.7 0.4 77
2020-01-09 19:00:00 6.2 0 Calma -- -- 0 853.7 0.7 77
2020-01-09 18:00:00 7.8 0 Calma -- -- 0 853.1 -0.5 71
2020-01-09 17:00:00 10.2 0 Calma -- -- 0 853.3 -0.9 61
2020-01-09 16:00:00 10.6 0 Calma -- -- 0 853 -1.8 57
2020-01-09 15:00:00 11.6 0 Calma -- -- 0 853.6 -1.6 53
2020-01-09 14:00:00 12.2 0 Calma -- -- 0 854.2 -0.8 51
2020-01-09 13:00:00 11.3 0 Calma -- -- 0 854.8 -0.1 48
2020-01-09 12:00:00 10.6 0 Calma 4 Sudoeste 0 855.2 0.6 49
2020-01-09 11:00:00 9.4 0 Calma 0 Calma 0 855 1 55
2020-01-09 10:00:00 4.9 0 Calma -- -- 0 854.9 0.3 65
2020-01-09 09:00:00 0.9 0 Calma -- -- 0 854.6 0.1 69
2020-01-09 08:00:00 1.7 0 Calma -- -- 0 854 -0.5 68
2020-01-09 07:00:00 1.1 0 Calma -- -- 0 854.6 -0.4 67
2020-01-09 06:00:00 1.7 0 Calma -- -- 0 854.5 -0.9 64
2020-01-09 05:00:00 2 0 Calma -- -- 0 854.5 -1.2 64
2020-01-09 04:00:00 3.3 0 Calma -- -- 0 855 -0.6 65
2020-01-09 03:00:00 2.7 0 Calma -- -- 0 855.4 -0.9 63
2020-01-09 02:00:00 2.6 0 Calma -- -- 0 855.7 -0.6 61
2020-01-09 01:00:00 3.1 0 Calma -- -- 0 855.6 -0.6 60
2020-01-09 00:00:00 2.9 0 Calma -- -- 0 856.3 -0.1 57
2020-01-08 23:00:00 3.1 0 Calma -- -- 0 856.3 -0.1 55
2020-01-08 22:00:00 3.7 0 Calma -- -- 0 856.2 -0.1 52
2020-01-08 21:00:00 5 0 Calma -- -- 0 856.4 0.4 48
2020-01-08 20:00:00 5.4 0 Calma -- -- 0 856.4 0.4 45
2020-01-08 19:00:00 7.6 0 Calma 4 Sudoeste 0 856.3 0.4 37
2020-01-08 18:00:00 10.8 0 Calma -- -- 0 856 0 29
2020-01-08 17:00:00 13.2 0 Calma 0 Calma 0 856 -0.6 25
2020-01-08 16:00:00 13.8 0 Calma -- -- 0 855.9 -1.3 22
2020-01-08 15:00:00 15.2 0 Calma -- -- 0 856 -2.2 20
2020-01-08 14:00:00 15.2 0 Calma -- -- 0 856.6 -1.8 17
2020-01-08 13:00:00 14.9 0 Calma -- -- 0 857.2 -0.8 17
2020-01-08 12:00:00 13.5 0 Calma -- -- 0 858.2 0.8 20
2020-01-08 11:00:00 7.3 0 Calma -- -- 0 858.4 1.1 29
2020-01-08 10:00:00 4.2 0 Calma -- -- 0 858 0.8 27
2020-01-08 09:00:00 3.2 0 Calma 0 Calma 0 857.4 0.1 25
2020-01-08 08:00:00 2.8 0 Calma -- -- 0 857.3 -0.2 25
2020-01-08 07:00:00 2.5 0 Calma -- -- 0 857.2 -0.6 25
2020-01-08 06:00:00 2.9 0 Calma -- -- 0 857.3 -0.6 27
2020-01-08 05:00:00 3 0 Calma -- -- 0 857.5 -0.5 27
2020-01-08 04:00:00 3.7 0 Calma -- -- 0 857.8 -0.3 27
2020-01-08 03:00:00 4.1 0 Calma -- -- 0 857.9 -0.7 27
2020-01-08 02:00:00 4 0 Calma 0 Calma 0 858 -0.9 27
2020-01-08 01:00:00 3.7 0 Calma -- -- 0 858.1 -0.9 29
2020-01-08 00:00:00 3.4 0 Calma -- -- 0 858.6 -0.4 31
2020-01-07 23:00:00 3.5 0 Calma -- -- 0 858.9 -0.1 29
2020-01-07 22:00:00 3.4 0 Calma -- -- 0 859 0.2 29
2020-01-07 21:00:00 3.6 0 Calma -- -- 0 859 0.3 31
2020-01-07 20:00:00 4.1 0 Calma -- -- 0 859 0.6 31
2020-01-07 19:00:00 6.3 0 Calma 0 Calma 0 858.8 0.3 28
2020-01-07 18:00:00 10 0 Calma 0 Calma 0 858.7 0.2 25
2020-01-07 17:00:00 12.5 0 Calma 9 Sudoeste 0 858.4 -0.6 23
2020-01-07 16:00:00 13.6 0 Calma 2 Norte 0 858.5 -1.1 21
2020-01-07 15:00:00 15.7 0 Calma 0 Calma 0 858.5 -1.5 20
2020-01-07 14:00:00 16.1 0 Calma 0 Calma 0 859 -0.9 21
2020-01-07 13:00:00 13.9 0 Calma 0 Calma 0 859.6 0.2 24
2020-01-07 12:00:00 13 0 Calma -- -- 0 860 1.3 28
2020-01-07 11:00:00 10 0 Calma -- -- 0 859.9 1.4 33
2020-01-07 10:00:00 5.6 0 Calma 0 Calma 0 859.4 1 44
2020-01-07 09:00:00 1.2 0 Calma -- -- 0 858.7 0.4 44
2020-01-07 08:00:00 1.1 0 Calma -- -- 0 858.5 0.2 44
2020-01-07 07:00:00 1.5 0 Calma -- -- 0 858.4 -0.1 44
2020-01-07 06:00:00 1.3 0 Calma 0 Calma 0 858.3 -0.2 45
2020-01-07 05:00:00 2.3 0 Calma -- -- 0 858.3 0.1 45
2020-01-07 04:00:00 2.1 0 Calma -- -- 0 858.5 0.4 45
2020-01-07 03:00:00 2.1 0 Calma -- -- 0 858.5 0.3 47
2020-01-07 02:00:00 1.3 0 Calma -- -- 0 858.2 -0.1 49
2020-01-07 01:00:00 1.4 0 Calma -- -- 0 858.1 -0.1 49
2020-01-07 00:00:00 0.8 0 Calma -- -- 0 858.2 0.3 52
2020-01-06 23:00:00 1 0 Calma 0 Calma 0 858.3 0.7 52
2020-01-06 22:00:00 1.2 0 Calma -- -- 0 858.2 1.2 49
2020-01-06 21:00:00 1.9 0 Calma -- -- 0 857.9 1.3 44
2020-01-06 20:00:00 3.3 0 Calma -- -- 0 857.6 1.6 40
2020-01-06 19:00:00 4.7 0 Calma -- -- 0 857 1.4 36
2020-01-06 18:00:00 7.7 0 Calma -- -- 0 856.6 1.1 31
2020-01-06 17:00:00 11.4 0 Calma -- -- 0 856 0.1 24
2020-01-06 16:00:00 12.5 0 Calma 0 Calma 0 855.6 -1 22
2020-01-06 15:00:00 13.6 0 Calma -- -- 0 855.5 -1.4 21
2020-01-06 14:00:00 14.6 0 Calma -- -- 0 855.9 -1.1 22
2020-01-06 13:00:00 13.5 0 Calma -- -- 0 856.6 0 22
2020-01-06 12:00:00 12.2 0 Calma -- -- 0 856.9 0.8 28
2020-01-06 11:00:00 8.7 0 Calma -- -- 0 857 1.4 33
2020-01-06 10:00:00 5.1 0 Calma -- -- 0 856.6 1.6 41